Time;durP1;ratioP1;P1;durP2;ratioP2;P2;SDS_P1;SDS_P2;PMS_P1;PMS_P2;Temp;Humidity;BMP_temperature;BMP_pressure;BME280_temperature;BME280_humidity;BME280_pressure;Samples;Min_cycle;Max_cycle;Signal;HPM_P1;HPM_P2
2022/06/17 00:02:04;;;;;;;;;;;;;;;16.10;57.63;99966.09;8409967;28;19932;-76
2022/06/17 00:06:05;;;;;;;;;;;;;;;16.04;57.64;99972.31;8403165;28;20019;-77
2022/06/17 00:10:17;;;;;;;;;;;;;;;15.97;58.51;99975.91;8400749;28;20014;-77
2022/06/17 00:14:20;;;;;;;;;;;;;;;15.91;59.46;99970.78;8404134;28;20016;-77
2022/06/17 00:18:24;;;;;;;;;;;;;;;15.84;60.11;99961.31;8439265;28;20386;-76
2022/06/17 00:22:25;;;;;;;;;;;;;;;15.76;60.60;99968.41;8454754;28;19928;-76
2022/06/17 00:26:27;;;;;;;;;;;;;;;15.68;60.18;99968.53;8421643;28;20487;-77
2022/06/17 00:30:29;;;;;;;;;;;;;;;15.58;60.84;99974.75;8446185;28;20243;-77
2022/06/17 00:34:31;;;;;;;;;;;;;;;15.49;60.95;99964.44;8434417;28;19943;-76
2022/06/17 00:38:33;;;;;;;;;;;;;;;15.41;62.24;99962.78;8433774;28;20010;-77
2022/06/17 00:42:35;;;;;;;;;;;;;;;15.28;62.50;99957.78;8424677;28;19955;-76
2022/06/17 00:46:49;;;;;;;;;;;;;;;15.14;61.85;99963.22;8416182;27;19928;-77
2022/06/17 00:50:58;;;;;;;;;;;;;;;15.02;62.60;99966.84;8454561;27;19932;-77
2022/06/17 00:55:12;;;;;;;;;;;;;;;14.95;62.95;99966.97;8426892;28;19963;-77
2022/06/17 00:59:14;;;;;;;;;;;;;;;14.91;63.17;99970.50;8445242;28;19938;-77
2022/06/17 01:03:20;;;;;;;;;;;;;;;14.86;64.34;99973.16;8434613;28;20026;-77
2022/06/17 01:07:23;;;;;;;;;;;;;;;14.76;65.43;99974.16;8454311;28;19927;-77
2022/06/17 01:11:25;;;;;;;;;;;;;;;14.62;65.81;99987.38;8434484;28;19938;-77
2022/06/17 01:15:28;;;;;;;;;;;;;;;14.58;66.07;99985.69;8435769;28;19962;-77
2022/06/17 01:19:39;;;;;;;;;;;;;;;14.55;66.35;99974.41;8409999;28;19932;-76
2022/06/17 01:23:41;;;;;;;;;;;;;;;14.55;66.85;99980.50;8415340;28;20301;-77
2022/06/17 01:27:44;;;;;;;;;;;;;;;14.48;66.94;99987.53;8404158;28;19928;-76
2022/06/17 01:31:49;;;;;;;;;;;;;;;14.40;67.00;99997.19;8401208;28;19928;-76
2022/06/17 01:35:52;;;;;;;;;;;;;;;14.31;68.11;99993.78;8409698;28;19924;-77
2022/06/17 01:39:55;;;;;;;;;;;;;;;14.22;68.43;99999.97;8408352;28;20059;-77
2022/06/17 01:44:08;;;;;;;;;;;;;;;14.14;69.14;100009.59;8422109;28;19938;-77
2022/06/17 01:48:10;;;;;;;;;;;;;;;14.03;68.94;100008.84;8409262;28;19928;-77
2022/06/17 01:52:13;;;;;;;;;;;;;;;14.02;68.58;100013.22;8406021;28;19936;-77
2022/06/17 01:56:16;;;;;;;;;;;;;;;13.97;69.56;100017.59;8426429;28;20451;-77
2022/06/17 02:00:20;;;;;;;;;;;;;;;13.96;69.08;100017.59;8421538;28;20026;-76
2022/06/17 02:04:24;;;;;;;;;;;;;;;13.93;69.53;100009.78;8452318;28;19924;-77
2022/06/17 02:08:26;;;;;;;;;;;;;;;13.89;69.25;100014.19;8431602;28;20018;-77
2022/06/17 02:12:28;;;;;;;;;;;;;;;13.90;69.43;100022.00;8447424;28;19938;-77
2022/06/17 02:16:29;;;;;;;;;;;;;;;13.86;70.18;100020.28;8420296;28;19966;-77
2022/06/17 02:20:30;;;;;;;;;;;;;;;13.79;70.14;100020.34;8421359;27;19928;-77
2022/06/17 02:24:35;;;;;;;;;;;;;;;13.75;69.99;100013.41;8469182;27;19939;-76
2022/06/17 02:28:38;;;;;;;;;;;;;;;13.75;70.48;100016.88;8448083;27;20017;-77
2022/06/17 02:32:40;;;;;;;;;;;;;;;13.72;71.30;100008.22;8461133;27;20022;-76
2022/06/17 02:36:48;;;;;;;;;;;;;;;13.71;72.03;100009.09;8448519;28;19956;-77
2022/06/17 02:40:52;;;;;;;;;;;;;;;13.66;72.44;100008.28;8446218;27;19928;-77
2022/06/17 02:44:57;;;;;;;;;;;;;;;13.63;72.56;100018.72;8452783;28;19945;-77
2022/06/17 02:49:03;;;;;;;;;;;;;;;13.58;72.61;100019.59;8455315;27;19923;-77
2022/06/17 02:53:04;;;;;;;;;;;;;;;13.54;72.11;100024.88;8462436;27;19958;-76
2022/06/17 02:57:09;;;;;;;;;;;;;;;13.48;72.66;100023.16;8464098;27;20090;-76
2022/06/17 03:01:15;;;;;;;;;;;;;;;13.35;73.44;100018.88;8423255;28;19928;-77
2022/06/17 03:05:21;;;;;;;;;;;;;;;13.36;73.19;100010.19;8453024;28;19927;-76
2022/06/17 03:09:31;;;;;;;;;;;;;;;13.32;73.18;100008.47;8437451;28;20500;-77
2022/06/17 03:13:44;;;;;;;;;;;;;;;13.26;73.70;100018.94;8443982;28;19934;-76
2022/06/17 03:17:45;;;;;;;;;;;;;;;13.26;73.84;100013.72;8442003;28;19932;-76
2022/06/17 03:21:47;;;;;;;;;;;;;;;13.24;73.81;100018.94;8464096;27;20461;-77
2022/06/17 03:25:58;;;;;;;;;;;;;;;13.20;74.80;100025.06;8455630;27;19970;-77
2022/06/17 03:30:00;;;;;;;;;;;;;;;13.18;74.43;100026.81;8448220;28;20954;-76
2022/06/17 03:34:07;;;;;;;;;;;;;;;13.14;75.44;100026.78;8449108;27;20465;-76
2022/06/17 03:38:27;;;;;;;;;;;;;;;13.07;74.61;100023.34;8449095;27;20042;-76
2022/06/17 03:42:34;;;;;;;;;;;;;;;13.00;75.07;100019.91;8440337;27;19939;-76
2022/06/17 03:46:43;;;;;;;;;;;;;;;12.98;75.11;100024.25;8426867;28;20674;-76
2022/06/17 03:50:47;;;;;;;;;;;;;;;12.93;75.11;100031.22;8449605;27;20315;-76
2022/06/17 03:54:48;;;;;;;;;;;;;;;12.90;75.23;100033.81;8458498;27;20097;-76
2022/06/17 03:58:51;;;;;;;;;;;;;;;12.86;76.09;100039.06;8419346;27;20026;-76
2022/06/17 04:02:53;;;;;;;;;;;;;;;12.86;75.84;100037.31;8445807;28;19928;-76
2022/06/17 04:06:55;;;;;;;;;;;;;;;12.99;77.19;100044.22;8435118;28;19928;-77
2022/06/17 04:10:58;;;;;;;;;;;;;;;13.15;77.13;100036.34;8450688;27;19970;-76
2022/06/17 04:15:38;;;;;;;;;;;;;;;13.27;77.24;100034.56;8435090;28;20427;-76
2022/06/17 04:19:40;;;;;;;;;;;;;;;13.42;76.48;100037.97;8311594;28;19936;-76
2022/06/17 04:23:47;;;;;;;;;;;;;;;13.51;75.49;100046.63;8379021;27;20240;-76
2022/06/17 04:27:57;;;;;;;;;;;;;;;13.52;74.35;100042.28;8456363;27;19943;-76
2022/06/17 04:32:02;;;;;;;;;;;;;;;13.60;74.23;100051.78;8436031;27;19979;-77
2022/06/17 04:36:09;;;;;;;;;;;;;;;13.67;74.70;100057.84;8458357;27;20345;-77
2022/06/17 04:40:20;;;;;;;;;;;;;;;13.77;74.32;100046.44;8443188;27;19927;-78
2022/06/17 04:44:22;;;;;;;;;;;;;;;13.88;75.02;100049.00;8425796;27;20026;-77
2022/06/17 04:48:24;;;;;;;;;;;;;;;14.01;76.22;100060.22;8452292;27;20690;-74
2022/06/17 04:52:34;;;;;;;;;;;;;;;14.03;75.50;100061.06;8449910;27;19935;-77
2022/06/17 04:56:41;;;;;;;;;;;;;;;14.05;75.34;100054.97;8439970;27;19928;-77
2022/06/17 05:00:48;;;;;;;;;;;;;;;14.10;75.91;100058.38;8428431;27;19948;-77
2022/06/17 05:04:51;;;;;;;;;;;;;;;14.22;76.36;100065.28;8463068;27;19927;-77
2022/06/17 05:09:00;;;;;;;;;;;;;;;14.36;75.44;100067.75;8435213;27;20725;-77
2022/06/17 05:13:05;;;;;;;;;;;;;;;14.54;74.18;100059.75;8455650;27;20020;-77
2022/06/17 05:17:06;;;;;;;;;;;;;;;14.92;74.21;100062.00;8443863;27;19928;-77
2022/06/17 05:21:22;;;;;;;;;;;;;;;15.41;72.29;100058.75;8455232;27;19927;-77
2022/06/17 05:25:29;;;;;;;;;;;;;;;16.04;68.93;100056.13;8432744;27;20239;-77
2022/06/17 05:29:32;;;;;;;;;;;;;;;16.57;68.03;100044.72;8438586;27;20421;-76
2022/06/17 05:33:33;;;;;;;;;;;;;;;16.82;66.04;100047.78;8441792;27;19935;-76
2022/06/17 05:37:35;;;;;;;;;;;;;;;16.94;65.81;100044.06;8452301;27;19927;-76
2022/06/17 05:41:36;;;;;;;;;;;;;;;17.09;66.03;100041.13;8447439;28;20503;-76
2022/06/17 05:45:38;;;;;;;;;;;;;;;17.20;66.44;100036.50;8426642;28;19967;-76
2022/06/17 05:49:40;;;;;;;;;;;;;;;17.37;64.98;100048.41;8446768;28;20282;-77
2022/06/17 05:53:42;;;;;;;;;;;;;;;17.51;63.49;100041.97;8450326;28;19970;-77
2022/06/17 05:57:43;;;;;;;;;;;;;;;17.83;61.72;100040.41;8453870;28;20491;-75
2022/06/17 06:01:44;;;;;;;;;;;;;;;18.37;61.40;100050.47;8451847;28;20042;-76
2022/06/17 06:05:46;;;;;;;;;;;;;;;18.83;58.26;100052.75;8439928;28;20380;-76
2022/06/17 06:09:47;;;;;;;;;;;;;;;19.55;54.72;100058.59;8443470;28;20023;-76
2022/06/17 06:13:49;;;;;;;;;;;;;;;20.19;55.13;100075.91;8446862;28;20011;-75
2022/06/17 06:17:50;;;;;;;;;;;;;;;20.69;52.13;100067.22;8411253;28;19974;-77
2022/06/17 06:21:52;;;;;;;;;;;;;;;21.15;51.10;100058.50;8437481;28;20082;-76
2022/06/17 06:25:53;;;;;;;;;;;;;;;21.85;48.28;100053.19;8426576;28;20047;-77
2022/06/17 06:29:54;;;;;;;;;;;;;;;22.33;46.28;100069.78;8425825;28;19963;-76
2022/06/17 06:33:56;;;;;;;;;;;;;;;22.76;45.75;100069.69;8425583;28;19943;-76
2022/06/17 06:37:57;;;;;;;;;;;;;;;23.12;44.53;100059.25;8433583;28;19939;-76
2022/06/17 06:41:59;;;;;;;;;;;;;;;23.41;42.68;100073.00;8448910;28;20468;-76
2022/06/17 06:46:04;;;;;;;;;;;;;;;23.65;42.89;100071.00;8444035;27;19927;-76
2022/06/17 06:50:08;;;;;;;;;;;;;;;23.92;42.99;100068.84;8436823;27;19935;-76
2022/06/17 06:54:10;;;;;;;;;;;;;;;24.04;42.03;100058.47;8453004;27;19927;-76
2022/06/17 06:58:15;;;;;;;;;;;;;;;24.31;41.26;100053.63;8451510;28;20626;-77
2022/06/17 07:02:17;;;;;;;;;;;;;;;24.50;40.65;100055.34;8449899;27;19928;-76
2022/06/17 07:06:19;;;;;;;;;;;;;;;24.71;39.56;100056.91;8457458;27;19932;-77
2022/06/17 07:10:23;;;;;;;;;;;;;;;24.88;38.28;100054.22;8456123;27;20042;-75
2022/06/17 07:14:24;;;;;;;;;;;;;;;24.97;38.79;100058.22;8432405;28;19927;-76
2022/06/17 07:18:29;;;;;;;;;;;;;;;25.19;38.23;100052.63;8445867;28;19932;-77
2022/06/17 07:22:31;;;;;;;;;;;;;;;25.04;38.64;100054.31;8432061;28;19928;-77
2022/06/17 07:26:32;;;;;;;;;;;;;;;24.77;38.61;100058.38;8439438;27;19923;-76
2022/06/17 07:30:34;;;;;;;;;;;;;;;24.40;39.03;100058.47;8451578;27;19939;-73
2022/06/17 07:34:35;;;;;;;;;;;;;;;24.15;39.47;100063.25;8446644;27;20010;-73
2022/06/17 07:42:59;;;;;;;;;;;;;;;24.14;39.87;100072.16;8447077;27;19950;-74
2022/06/17 07:47:00;;;;;;;;;;;;;;;24.44;39.53;100066.31;8443848;27;20360;-74
2022/06/17 07:51:02;;;;;;;;;;;;;;;24.72;39.16;100058.63;8456638;27;19934;-74
2022/06/17 07:55:03;;;;;;;;;;;;;;;24.63;39.44;100053.81;8449585;27;20054;-73
2022/06/17 07:59:12;;;;;;;;;;;;;;;24.32;40.15;100050.03;8437201;28;19989;-73
2022/06/17 08:03:14;;;;;;;;;;;;;;;24.03;41.16;100047.94;8444955;28;19938;-73
2022/06/17 08:07:16;;;;;;;;;;;;;;;23.89;41.35;100045.13;8433576;28;20004;-73
2022/06/17 08:11:17;;;;;;;;;;;;;;;23.92;42.37;100042.31;8449890;28;19988;-73
2022/06/17 08:15:20;;;;;;;;;;;;;;;24.31;42.17;100044.81;8445474;27;19970;-76
2022/06/17 08:19:21;;;;;;;;;;;;;;;24.94;40.04;100037.94;8447649;27;19928;-76
2022/06/17 08:23:23;;;;;;;;;;;;;;;25.70;38.26;100027.66;8439769;27;20042;-76
2022/06/17 08:27:25;;;;;;;;;;;;;;;26.19;37.53;100038.13;8454194;27;19980;-76
2022/06/17 08:31:26;;;;;;;;;;;;;;;26.33;35.32;100047.97;8448632;27;19928;-76
2022/06/17 08:35:30;;;;;;;;;;;;;;;26.71;34.96;100054.56;8447659;27;19961;-76
2022/06/17 08:39:33;;;;;;;;;;;;;;;26.91;33.92;100057.81;8458347;27;19934;-76
2022/06/17 08:43:48;;;;;;;;;;;;;;;27.26;34.83;100053.00;8453420;27;19928;-76
2022/06/17 08:48:12;;;;;;;;;;;;;;;27.54;34.78;100054.81;8444057;27;19947;-76
2022/06/17 08:52:13;;;;;;;;;;;;;;;27.80;33.21;100055.81;8419966;28;19975;-73
2022/06/17 08:56:20;;;;;;;;;;;;;;;27.98;32.85;100049.25;8441998;28;19924;-75
2022/06/17 09:00:30;;;;;;;;;;;;;;;28.19;33.28;100047.00;8425547;27;19933;-75
2022/06/17 09:04:51;;;;;;;;;;;;;;;28.45;32.82;100051.47;8440755;27;19928;-75
2022/06/17 09:08:53;;;;;;;;;;;;;;;28.61;32.35;100058.44;8442288;28;19928;-75
2022/06/17 09:13:09;;;;;;;;;;;;;;;28.84;32.01;100065.72;8451145;27;19981;-75
2022/06/17 09:17:10;;;;;;;;;;;;;;;28.84;31.72;100050.53;8404259;28;19928;-75
2022/06/17 09:21:15;;;;;;;;;;;;;;;28.55;29.25;100052.56;8442182;27;20617;-75
2022/06/17 09:25:19;;;;;;;;;;;;;;;28.46;30.92;100045.16;8444777;28;19974;-73
2022/06/17 09:29:24;;;;;;;;;;;;;;;28.38;31.27;100036.84;8439389;28;20026;-75
2022/06/17 09:33:31;;;;;;;;;;;;;;;28.57;31.08;100041.78;8446554;27;19928;-74
2022/06/17 09:37:51;;;;;;;;;;;;;;;28.65;29.11;100043.91;8447734;28;19928;-74
2022/06/17 09:41:57;;;;;;;;;;;;;;;28.79;30.58;100047.34;8448750;27;20340;-76
2022/06/17 09:46:17;;;;;;;;;;;;;;;28.84;29.64;100047.88;8426659;28;20062;-76
2022/06/17 09:50:26;;;;;;;;;;;;;;;28.83;29.16;100046.16;8429820;28;20348;-75
2022/06/17 09:54:31;;;;;;;;;;;;;;;28.70;29.85;100044.44;8434204;28;20437;-76
2022/06/17 09:58:36;;;;;;;;;;;;;;;28.62;29.47;100047.66;8414653;28;19942;-76
2022/06/17 10:02:52;;;;;;;;;;;;;;;28.58;29.81;100055.03;8426053;28;19932;-76
2022/06/17 10:07:02;;;;;;;;;;;;;;;28.91;29.61;100059.06;8441045;28;20015;-75
2022/06/17 10:11:17;;;;;;;;;;;;;;;29.02;28.52;100053.78;8441095;28;19927;-76
2022/06/17 10:15:26;;;;;;;;;;;;;;;29.22;28.67;100044.34;8417054;28;19928;-76
2022/06/17 10:19:57;;;;;;;;;;;;;;;29.45;28.53;100051.66;8421566;28;20603;-76
2022/06/17 10:23:58;;;;;;;;;;;;;;;29.55;27.99;100050.97;8402991;27;19932;-76
2022/06/17 10:28:06;;;;;;;;;;;;;;;29.66;26.94;100037.66;8428784;27;19935;-76
2022/06/17 10:32:07;;;;;;;;;;;;;;;29.61;26.10;100042.47;8436731;28;19938;-76
2022/06/17 10:36:09;;;;;;;;;;;;;;;29.76;27.57;100033.31;8449674;27;20047;-76
2022/06/17 10:40:14;;;;;;;;;;;;;;;29.90;26.83;100029.63;8434820;28;19928;-76
2022/06/17 10:44:17;;;;;;;;;;;;;;;29.89;26.63;100022.56;8434536;27;20310;-76
2022/06/17 10:48:26;;;;;;;;;;;;;;;30.11;27.23;100021.84;8455752;27;19928;-76
2022/06/17 10:52:35;;;;;;;;;;;;;;;30.20;27.19;100005.94;8455191;27;20015;-76
2022/06/17 10:56:40;;;;;;;;;;;;;;;30.46;27.76;100003.06;8433178;27;19928;-76
2022/06/17 11:00:50;;;;;;;;;;;;;;;30.51;25.35;99999.06;8425784;27;19978;-76
2022/06/17 11:04:56;;;;;;;;;;;;;;;30.53;25.07;99999.81;8445086;27;19928;-76
2022/06/17 11:08:59;;;;;;;;;;;;;;;30.56;26.39;100004.94;8451768;27;19927;-75
2022/06/17 11:13:04;;;;;;;;;;;;;;;30.60;26.31;100002.88;8469806;27;20240;-76
2022/06/17 11:17:14;;;;;;;;;;;;;;;30.85;25.12;100007.19;8432309;28;19928;-76
2022/06/17 11:21:21;;;;;;;;;;;;;;;30.93;25.20;99997.59;8424463;28;20278;-76
2022/06/17 11:25:28;;;;;;;;;;;;;;;30.93;25.45;99991.38;8465287;27;19999;-76
2022/06/17 11:29:36;;;;;;;;;;;;;;;31.09;26.33;99986.47;8458419;27;19977;-76
2022/06/17 11:33:43;;;;;;;;;;;;;;;31.20;25.05;99980.28;8429638;27;20082;-76
2022/06/17 11:37:45;;;;;;;;;;;;;;;31.29;26.41;99974.16;8442848;27;19928;-76
2022/06/17 11:41:47;;;;;;;;;;;;;;;31.24;24.90;99966.50;8463894;27;20369;-76
2022/06/17 11:45:48;;;;;;;;;;;;;;;31.25;25.34;99967.34;8446627;27;19946;-76
2022/06/17 11:49:54;;;;;;;;;;;;;;;31.39;25.50;99969.75;8432982;28;19937;-76
2022/06/17 11:54:07;;;;;;;;;;;;;;;31.23;24.40;99959.41;8431311;28;19935;-76
2022/06/17 11:58:09;;;;;;;;;;;;;;;31.32;24.92;99956.97;8454750;27;19927;-76
2022/06/17 12:02:10;;;;;;;;;;;;;;;31.45;25.41;99952.31;8454772;27;19928;-75
2022/06/17 12:06:23;;;;;;;;;;;;;;;31.53;25.29;99945.31;8465884;27;19967;-75
2022/06/17 12:10:46;;;;;;;;;;;;;;;31.77;25.44;99947.81;8428560;27;20012;-75
2022/06/17 12:14:50;;;;;;;;;;;;;;;31.79;24.00;99943.19;8443451;28;19932;-76
2022/06/17 12:18:54;;;;;;;;;;;;;;;31.88;25.22;99938.00;8441512;28;19939;-76
2022/06/17 12:23:03;;;;;;;;;;;;;;;31.89;24.82;99927.13;8426970;28;19974;-76
2022/06/17 12:27:23;;;;;;;;;;;;;;;31.98;24.53;99930.91;8429071;28;19927;-75
2022/06/17 12:31:45;;;;;;;;;;;;;;;32.00;25.02;99928.94;8440789;27;20318;-76
2022/06/17 12:35:50;;;;;;;;;;;;;;;32.08;23.90;99919.22;8441088;27;19932;-76
2022/06/17 12:39:57;;;;;;;;;;;;;;;32.14;23.84;99907.09;8432944;28;20026;-76
2022/06/17 12:44:04;;;;;;;;;;;;;;;32.03;22.07;99896.41;8440275;28;19934;-76
2022/06/17 12:48:14;;;;;;;;;;;;;;;32.12;23.86;99893.78;8439236;27;19934;-76
2022/06/17 12:56:58;;;;;;;;;;;;;;;32.21;23.95;99885.91;8446061;27;20042;-76
2022/06/17 13:01:07;;;;;;;;;;;;;;;32.28;23.50;99879.03;8430744;27;20262;-76
2022/06/17 13:05:28;;;;;;;;;;;;;;;32.38;23.08;99886.19;8437118;27;19927;-76
2022/06/17 13:09:47;;;;;;;;;;;;;;;32.55;23.31;99891.94;8443299;27;20343;-76
2022/06/17 13:13:52;;;;;;;;;;;;;;;32.62;22.72;99888.56;8434957;27;19931;-76
2022/06/17 13:18:01;;;;;;;;;;;;;;;32.54;21.89;99888.41;8412417;27;19927;-76
2022/06/17 13:22:11;;;;;;;;;;;;;;;32.48;21.82;99896.97;8437292;27;19938;-76
2022/06/17 13:26:16;;;;;;;;;;;;;;;32.57;22.90;99901.56;8439705;27;20014;-74
2022/06/17 13:30:30;;;;;;;;;;;;;;;32.72;22.43;99899.38;8440258;27;19983;-74
2022/06/17 13:34:35;;;;;;;;;;;;;;;32.59;21.52;99901.44;8443119;28;20233;-74
2022/06/17 13:38:43;;;;;;;;;;;;;;;32.62;22.45;99895.78;8447531;27;19931;-74
2022/06/17 13:42:45;;;;;;;;;;;;;;;32.73;21.45;99896.53;8428251;28;19938;-73
2022/06/17 13:47:03;;;;;;;;;;;;;;;32.88;22.11;99898.91;8417109;28;19935;-73
2022/06/17 13:51:11;;;;;;;;;;;;;;;32.98;23.50;99895.22;8422168;28;19924;-75
2022/06/17 13:55:15;;;;;;;;;;;;;;;32.90;21.51;99892.38;8445532;28;19967;-73
2022/06/17 13:59:35;;;;;;;;;;;;;;;32.93;21.70;99883.19;8448343;28;19928;-73
2022/06/17 14:03:54;;;;;;;;;;;;;;;32.96;22.06;99875.69;8449581;28;20535;-73
2022/06/17 14:08:04;;;;;;;;;;;;;;;32.97;22.43;99866.63;8450741;28;19971;-73
2022/06/17 14:12:25;;;;;;;;;;;;;;;33.11;22.13;99873.44;8451204;28;20404;-73
2022/06/17 14:16:29;;;;;;;;;;;;;;;33.10;21.83;99860.97;8445252;27;19979;-73
2022/06/17 14:20:38;;;;;;;;;;;;;;;33.13;22.22;99857.16;8432059;28;19935;-74
2022/06/17 14:24:43;;;;;;;;;;;;;;;33.22;22.26;99859.88;8450892;28;20010;-73
2022/06/17 14:29:00;;;;;;;;;;;;;;;33.31;22.29;99856.34;8451084;28;19927;-73
2022/06/17 14:33:02;;;;;;;;;;;;;;;33.40;22.42;99865.44;8445051;28;19998;-73
2022/06/17 14:37:05;;;;;;;;;;;;;;;33.41;22.29;99861.78;8450886;28;19963;-73
2022/06/17 14:45:53;;;;;;;;;;;;;;;33.37;21.63;99859.47;8442854;27;19970;-77
2022/06/17 14:50:13;;;;;;;;;;;;;;;33.36;20.12;99855.94;8412670;27;19968;-76
2022/06/17 14:54:15;;;;;;;;;;;;;;;33.20;19.70;99847.53;8438210;27;20022;-77
2022/06/17 14:58:16;;;;;;;;;;;;;;;33.15;21.62;99841.72;8452000;28;20587;-76
2022/06/17 15:02:20;;;;;;;;;;;;;;;33.32;21.90;99847.28;8436524;27;19938;-76
2022/06/17 15:06:24;;;;;;;;;;;;;;;33.39;22.43;99839.50;8446345;28;19928;-75
2022/06/17 15:10:26;;;;;;;;;;;;;;;33.09;19.81;99839.59;8442198;28;20812;-77
2022/06/17 15:14:28;;;;;;;;;;;;;;;33.03;19.62;99840.97;8455626;27;20606;-77
2022/06/17 15:18:29;;;;;;;;;;;;;;;33.00;21.56;99838.56;8450303;27;19934;-77
2022/06/17 15:22:32;;;;;;;;;;;;;;;33.10;20.71;99838.59;8433605;28;19975;-77
2022/06/17 15:27:10;;;;;;;;;;;;;;;33.15;21.51;99830.94;8431911;28;19938;-77
2022/06/17 15:31:19;;;;;;;;;;;;;;;33.23;22.01;99828.44;8345317;27;19959;-76
2022/06/17 15:35:30;;;;;;;;;;;;;;;33.34;21.49;99822.91;8453513;27;20655;-77
2022/06/17 15:39:32;;;;;;;;;;;;;;;33.27;22.02;99819.91;8452043;27;20079;-76
2022/06/17 15:43:33;;;;;;;;;;;;;;;33.08;21.38;99811.84;8439743;28;19927;-77
2022/06/17 15:47:35;;;;;;;;;;;;;;;33.11;21.48;99799.94;8446015;27;19931;-77
2022/06/17 15:51:40;;;;;;;;;;;;;;;32.92;19.19;99803.44;8447646;27;19928;-77
2022/06/17 15:55:41;;;;;;;;;;;;;;;32.77;20.99;99802.97;8451005;27;20018;-77
2022/06/17 16:00:00;;;;;;;;;;;;;;;32.78;21.54;99811.88;8446286;28;19938;-77
2022/06/17 16:04:04;;;;;;;;;;;;;;;32.81;22.39;99817.00;8428411;28;20206;-77
2022/06/17 16:08:07;;;;;;;;;;;;;;;32.74;24.05;99811.31;8446411;27;19966;-77
2022/06/17 16:12:21;;;;;;;;;;;;;;;32.85;23.00;99810.34;8462679;27;19928;-76
2022/06/17 16:16:44;;;;;;;;;;;;;;;32.75;23.00;99811.16;8448197;27;20108;-77
2022/06/17 16:20:46;;;;;;;;;;;;;;;32.57;23.90;99811.97;8441504;28;19938;-77
2022/06/17 16:24:58;;;;;;;;;;;;;;;32.51;25.33;99810.69;8430915;28;19938;-76
2022/06/17 16:29:08;;;;;;;;;;;;;;;32.44;24.84;99813.06;8448874;28;19932;-76
2022/06/17 16:33:12;;;;;;;;;;;;;;;32.28;25.03;99817.22;8442032;28;19927;-76
2022/06/17 16:37:21;;;;;;;;;;;;;;;32.13;25.49;99809.47;8450514;28;19934;-76
2022/06/17 16:46:02;;;;;;;;;;;;;;;31.43;26.16;99804.78;8442879;28;19928;-76
2022/06/17 16:50:04;;;;;;;;;;;;;;;31.01;27.56;99805.63;8429847;28;19985;-76
2022/06/17 16:54:06;;;;;;;;;;;;;;;30.56;28.63;99797.69;8425870;28;19947;-76
2022/06/17 16:58:08;;;;;;;;;;;;;;;30.23;27.85;99807.44;8398482;28;20323;-76
2022/06/17 17:02:11;;;;;;;;;;;;;;;29.78;29.88;99801.97;8430649;28;19959;-76
2022/06/17 17:06:13;;;;;;;;;;;;;;;29.47;30.03;99794.63;8414193;28;19935;-76
2022/06/17 17:10:16;;;;;;;;;;;;;;;29.21;30.85;99793.00;8444591;28;19936;-76
2022/06/17 17:14:18;;;;;;;;;;;;;;;28.96;31.95;99797.53;8449202;27;20830;-76
2022/06/17 17:18:19;;;;;;;;;;;;;;;28.65;33.54;99790.88;8429586;28;19951;-77
2022/06/17 17:22:22;;;;;;;;;;;;;;;28.36;35.72;99794.78;8455399;27;20022;-75
2022/06/17 17:26:25;;;;;;;;;;;;;;;28.01;35.58;99798.09;8417150;28;19985;-75
2022/06/17 17:30:27;;;;;;;;;;;;;;;27.78;36.87;99786.34;8441239;28;19982;-76
2022/06/17 17:34:29;;;;;;;;;;;;;;;27.50;36.78;99794.50;8411638;28;20027;-76
2022/06/17 17:38:30;;;;;;;;;;;;;;;27.26;38.01;99795.19;8458488;27;19982;-77
2022/06/17 17:42:31;;;;;;;;;;;;;;;26.94;37.65;99789.31;8442845;28;21006;-76
2022/06/17 17:46:34;;;;;;;;;;;;;;;26.70;38.92;99788.22;8437900;28;19928;-75
2022/06/17 17:50:36;;;;;;;;;;;;;;;26.38;40.32;99783.13;8455007;28;19978;-72
2022/06/17 17:54:42;;;;;;;;;;;;;;;26.20;42.10;99779.78;8441193;28;20758;-72
2022/06/17 17:58:44;;;;;;;;;;;;;;;25.96;41.26;99767.16;8444219;28;19986;-72
2022/06/17 18:02:45;;;;;;;;;;;;;;;25.71;43.18;99766.00;8444090;28;19958;-72
2022/06/17 18:06:47;;;;;;;;;;;;;;;25.44;42.35;99755.19;8425690;28;19982;-75
2022/06/17 18:10:49;;;;;;;;;;;;;;;25.25;42.78;99762.53;8446352;28;19959;-75
2022/06/17 18:14:51;;;;;;;;;;;;;;;25.07;42.87;99769.78;8429176;28;19951;-75
2022/06/17 18:18:52;;;;;;;;;;;;;;;24.91;42.73;99760.94;8442680;28;19928;-75
2022/06/17 18:22:54;;;;;;;;;;;;;;;24.73;42.57;99757.53;8440279;28;19970;-75
2022/06/17 18:27:01;;;;;;;;;;;;;;;24.61;44.06;99760.91;8442887;28;20030;-75
2022/06/17 18:31:03;;;;;;;;;;;;;;;24.44;44.79;99753.88;8429606;28;19928;-75
2022/06/17 18:35:05;;;;;;;;;;;;;;;24.31;44.66;99747.53;8440947;28;20679;-75
2022/06/17 18:39:14;;;;;;;;;;;;;;;24.16;44.62;99745.69;8445521;28;19938;-75
2022/06/17 18:43:15;;;;;;;;;;;;;;;24.00;45.13;99754.47;8432004;28;19927;-75
2022/06/17 18:47:17;;;;;;;;;;;;;;;23.84;44.37;99747.41;8437008;27;19962;-75
2022/06/17 18:51:19;;;;;;;;;;;;;;;23.71;46.13;99747.22;8435257;27;19931;-75
2022/06/17 18:55:21;;;;;;;;;;;;;;;23.65;45.75;99753.69;8448155;27;20350;-75
2022/06/17 18:59:23;;;;;;;;;;;;;;;23.50;47.35;99755.28;8452252;28;19938;-75
2022/06/17 19:03:27;;;;;;;;;;;;;;;23.32;47.11;99761.53;8447895;28;19936;-75
2022/06/17 19:17:22;;;;;;;;;;;;;;;23.12;47.55;99757.25;8451718;28;20368;-75
2022/06/17 19:20:35;;;;;;;;;;;;;;;22.59;49.84;99767.78;8444739;27;20026;-74
2022/06/17 19:24:37;;;;;;;;;;;;;;;22.41;51.21;99769.50;8430582;28;20454;-75
2022/06/17 19:28:55;;;;;;;;;;;;;;;22.28;53.00;99768.38;8437016;27;20057;-75
2022/06/17 19:32:59;;;;;;;;;;;;;;;22.15;54.22;99767.22;8444508;28;19970;-75
2022/06/17 19:37:01;;;;;;;;;;;;;;;21.97;55.32;99776.81;8440255;28;20329;-75
2022/06/17 19:45:23;;;;;;;;;;;;;;;21.64;57.13;99782.66;8447154;27;19981;-75
2022/06/17 19:49:27;;;;;;;;;;;;;;;21.44;58.76;99785.28;8449895;27;20480;-75
2022/06/17 19:53:31;;;;;;;;;;;;;;;21.32;59.50;99794.59;8444496;28;20418;-75
2022/06/17 19:57:32;;;;;;;;;;;;;;;21.29;59.32;99784.16;8454112;27;20319;-75
2022/06/17 20:01:36;;;;;;;;;;;;;;;21.22;59.32;99785.31;8426837;27;19978;-75
2022/06/17 20:05:38;;;;;;;;;;;;;;;21.13;58.50;99783.91;8446232;28;19931;-75
2022/06/17 20:09:40;;;;;;;;;;;;;;;20.98;59.38;99799.50;8448547;28;19934;-73
2022/06/17 20:13:41;;;;;;;;;;;;;;;20.72;58.97;99805.84;8439838;28;20006;-73
2022/06/17 20:17:44;;;;;;;;;;;;;;;20.49;58.17;99809.38;8428921;28;19967;-73
2022/06/17 20:21:46;;;;;;;;;;;;;;;20.35;59.51;99809.00;8446017;28;19931;-73
2022/06/17 20:25:48;;;;;;;;;;;;;;;20.30;58.88;99817.09;8449865;28;19932;-74
2022/06/17 20:29:49;;;;;;;;;;;;;;;20.27;57.37;99811.03;8448640;28;19947;-74
2022/06/17 20:33:50;;;;;;;;;;;;;;;20.18;57.93;99815.75;8446259;28;19971;-73
2022/06/17 20:37:52;;;;;;;;;;;;;;;20.09;56.77;99807.31;8447932;28;19928;-74
2022/06/17 20:41:54;;;;;;;;;;;;;;;20.01;56.44;99818.13;8445849;28;19934;-74
2022/06/17 20:50:16;;;;;;;;;;;;;;;19.79;56.41;99817.19;8442755;28;20247;-74
2022/06/17 20:54:18;;;;;;;;;;;;;;;19.69;56.27;99821.91;8440592;28;19931;-73
2022/06/17 20:58:23;;;;;;;;;;;;;;;19.61;56.85;99826.59;8416256;28;19927;-73
2022/06/17 21:02:24;;;;;;;;;;;;;;;19.46;56.34;99833.22;8445491;28;20575;-73
2022/06/17 21:06:31;;;;;;;;;;;;;;;19.30;57.80;99818.81;8439423;27;20615;-73
2022/06/17 21:10:35;;;;;;;;;;;;;;;19.23;57.53;99817.31;8440876;28;19979;-76
2022/06/17 21:14:43;;;;;;;;;;;;;;;19.16;57.86;99811.38;8444104;28;20307;-76
2022/06/17 21:18:46;;;;;;;;;;;;;;;19.08;59.09;99813.41;8445131;28;20405;-76
2022/06/17 21:22:47;;;;;;;;;;;;;;;19.01;60.10;99807.47;8429944;28;19942;-77
2022/06/17 21:26:48;;;;;;;;;;;;;;;18.92;60.24;99807.78;8446842;28;19928;-76
2022/06/17 21:30:53;;;;;;;;;;;;;;;18.85;60.65;99808.00;8444829;27;19955;-76
2022/06/17 21:34:55;;;;;;;;;;;;;;;18.74;60.34;99804.84;8426883;28;20445;-76
2022/06/17 21:39:00;;;;;;;;;;;;;;;18.70;61.45;99804.97;8440815;28;19928;-76
2022/06/17 21:43:02;;;;;;;;;;;;;;;18.61;62.17;99809.59;8437107;28;20002;-76
2022/06/17 21:47:04;;;;;;;;;;;;;;;18.50;62.95;99807.31;8445706;28;20014;-76